Terminal Aerodrome Forecast
Issued by NWS

Home | Current Version | Previous Version | Text Only | Print | Product List | Glossary On
Versions: 1 2 3 4 5 6 7 8 9 10 11 12 13 14
754
FTUS45 KFGZ 291726
TAFSEZ
TAF
KSEZ 291726Z 2918/3018 VRB06KT P6SM BKN110
      TEMPO 2921/2924 VRB15G35KT 6SM -TSRA BKN090CB
     FM300400 04006KT P6SM SCT110 BKN200=

USA.gov is the U.S. government's official web portal to all federal, state and local government web resources and services.